createdAt,value
2022-10-18T00:01:05.802Z,100.00
2022-10-18T00:03:34.782Z,100.00
2022-10-18T00:06:03.717Z,100.00
2022-10-18T00:08:32.195Z,100.00
2022-10-18T00:10:59.711Z,100.00
2022-10-18T00:13:28.359Z,100.00
2022-10-18T00:16:03.571Z,100.00
2022-10-18T00:18:31.668Z,100.00
2022-10-18T00:21:09.732Z,100.00
2022-10-18T00:23:37.517Z,100.00
2022-10-18T00:26:14.375Z,100.00
2022-10-18T00:28:43.297Z,100.00
2022-10-18T00:31:17.781Z,100.00
2022-10-18T00:33:46.861Z,100.00
2022-10-18T00:36:14.754Z,100.00
2022-10-18T00:38:43.442Z,100.00
2022-10-18T00:41:14.822Z,100.00
2022-10-18T00:43:59.673Z,100.00
2022-10-18T00:46:30.316Z,100.00
2022-10-18T00:49:01.595Z,100.00
2022-10-18T00:51:34.252Z,100.00
2022-10-18T00:54:02.351Z,100.00
2022-10-18T00:56:30.317Z,100.00
2022-10-18T00:58:58.405Z,100.00
2022-10-18T01:01:28.386Z,100.00
2022-10-18T01:03:57.647Z,100.00
2022-10-18T01:06:28.331Z,100.00
2022-10-18T01:09:14.395Z,100.00
2022-10-18T01:12:15.184Z,100.00
2022-10-18T01:14:52.927Z,100.00
2022-10-18T01:17:33.460Z,100.00
2022-10-18T01:20:22.564Z,100.00
2022-10-18T01:23:12.951Z,100.00
2022-10-18T01:25:58.888Z,100.00
2022-10-18T01:28:52.007Z,100.00
2022-10-18T01:31:27.916Z,100.00
2022-10-18T01:36:42.935Z,100.00
2022-10-18T01:39:18.621Z,100.00
2022-10-18T01:41:48.673Z,100.00
2022-10-18T01:44:21.700Z,100.00
2022-10-18T01:46:51.202Z,100.00
2022-10-18T01:49:19.240Z,100.00
2022-10-18T01:51:48.605Z,100.00
2022-10-18T01:54:22.150Z,100.00
2022-10-18T01:57:01.956Z,100.00
2022-10-18T01:59:54.414Z,100.00
2022-10-18T02:02:36.593Z,100.00
2022-10-18T02:05:18.204Z,100.00
2022-10-18T02:08:22.434Z,100.00
2022-10-18T02:11:04.843Z,100.00
2022-10-18T02:13:56.943Z,100.00
2022-10-18T02:16:46.152Z,100.00
2022-10-18T02:19:32.724Z,100.00
2022-10-18T02:22:01.722Z,100.00
2022-10-18T02:24:38.692Z,100.00
2022-10-18T02:27:06.561Z,100.00
2022-10-18T02:29:35.573Z,100.00
2022-10-18T02:32:32.620Z,100.00
2022-10-18T02:35:07.879Z,100.00
2022-10-18T02:37:39.255Z,100.00
2022-10-18T02:40:09.402Z,100.00
2022-10-18T02:42:47.826Z,100.00
2022-10-18T02:45:16.647Z,100.00
2022-10-18T02:47:44.920Z,100.00
2022-10-18T02:50:13.181Z,100.00
2022-10-18T02:52:40.638Z,100.00
2022-10-18T02:55:08.643Z,100.00
2022-10-18T02:57:38.078Z,100.00
2022-10-18T03:00:06.488Z,100.00
2022-10-18T03:02:34.391Z,100.00
2022-10-18T03:05:03.560Z,100.00
2022-10-18T03:07:31.597Z,100.00
2022-10-18T03:09:59.255Z,100.00
2022-10-18T03:12:26.811Z,100.00
2022-10-18T03:14:54.738Z,100.00
2022-10-18T03:17:22.336Z,100.00
2022-10-18T03:19:51.639Z,100.00
2022-10-18T03:22:19.401Z,100.00
2022-10-18T03:24:46.976Z,100.00
2022-10-18T03:27:14.657Z,100.00
2022-10-18T03:29:42.152Z,100.00
2022-10-18T03:32:09.733Z,100.00
2022-10-18T03:34:37.478Z,100.00
2022-10-18T03:37:05.544Z,100.00
2022-10-18T03:39:33.108Z,100.00
2022-10-18T03:42:00.672Z,100.00
2022-10-18T03:44:28.384Z,100.00
2022-10-18T03:46:55.872Z,100.00
2022-10-18T03:49:23.689Z,100.00
2022-10-18T03:51:51.456Z,100.00
2022-10-18T03:54:19.017Z,100.00
2022-10-18T03:56:46.593Z,100.00
2022-10-18T03:59:14.271Z,100.00
2022-10-18T04:01:42.181Z,100.00
2022-10-18T04:04:09.889Z,100.00
2022-10-18T04:06:37.488Z,100.00
2022-10-18T04:09:07.862Z,100.00
2022-10-18T04:11:37.948Z,100.00
2022-10-18T04:14:05.483Z,100.00
2022-10-18T04:16:33.128Z,100.00
2022-10-18T04:19:04.899Z,100.00
2022-10-18T04:21:32.421Z,100.00
2022-10-18T04:24:00.195Z,100.00
2022-10-18T04:26:27.781Z,100.00
2022-10-18T04:28:55.429Z,100.00
2022-10-18T04:31:22.968Z,100.00
2022-10-18T04:33:50.506Z,100.00
2022-10-18T04:36:18.454Z,100.00
2022-10-18T04:38:46.945Z,100.00
2022-10-18T04:41:14.711Z,100.00
2022-10-18T04:43:42.698Z,100.00
2022-10-18T04:46:10.250Z,100.00
2022-10-18T04:48:37.717Z,100.00
2022-10-18T04:51:05.694Z,100.00
2022-10-18T04:53:33.244Z,100.00
2022-10-18T04:56:00.806Z,100.00
2022-10-18T04:58:28.389Z,100.00
2022-10-18T05:00:56.039Z,100.00
2022-10-18T05:03:23.681Z,100.00
2022-10-18T05:06:01.363Z,100.00
2022-10-18T05:08:35.352Z,100.00
2022-10-18T05:11:04.439Z,100.00
2022-10-18T05:13:33.425Z,100.00
2022-10-18T05:16:01.116Z,100.00
2022-10-18T05:18:31.755Z,100.00
2022-10-18T05:20:59.713Z,100.00
2022-10-18T05:23:27.215Z,100.00
2022-10-18T05:25:54.832Z,100.00
2022-10-18T05:28:41.041Z,100.00
2022-10-18T05:31:11.710Z,100.00
2022-10-18T05:33:39.752Z,100.00
2022-10-18T05:36:08.208Z,100.00
2022-10-18T05:38:39.250Z,100.00
2022-10-18T05:41:07.112Z,100.00
2022-10-18T05:43:34.714Z,100.00
2022-10-18T05:46:04.251Z,100.00
2022-10-18T05:48:32.030Z,100.00
2022-10-18T05:51:00.725Z,100.00
2022-10-18T05:53:36.676Z,100.00
2022-10-18T05:56:04.968Z,100.00
2022-10-18T05:58:33.561Z,100.00
2022-10-18T06:01:05.391Z,100.00
2022-10-18T06:03:34.801Z,100.00
2022-10-18T06:06:10.745Z,100.00
2022-10-18T06:08:40.168Z,100.00
2022-10-18T06:11:15.183Z,100.00
2022-10-18T06:13:44.910Z,100.00
2022-10-18T06:16:14.124Z,100.00
2022-10-18T06:18:42.517Z,100.00
2022-10-18T06:21:12.966Z,100.00
2022-10-18T06:23:41.051Z,100.00
2022-10-18T06:26:11.732Z,100.00
2022-10-18T06:28:39.469Z,100.00
2022-10-18T06:31:08.653Z,100.00
2022-10-18T06:33:37.443Z,100.00
2022-10-18T06:36:08.205Z,100.00
2022-10-18T06:38:36.416Z,100.00
2022-10-18T06:41:05.490Z,100.00
2022-10-18T06:43:33.517Z,100.00
2022-10-18T06:46:05.098Z,100.00
2022-10-18T06:48:33.567Z,100.00
2022-10-18T06:51:03.498Z,100.00
2022-10-18T06:53:33.636Z,100.00
2022-10-18T06:56:07.267Z,100.00
2022-10-18T06:58:36.871Z,100.00
2022-10-18T07:01:12.688Z,100.00
2022-10-18T07:03:41.247Z,100.00
2022-10-18T07:06:11.152Z,100.00
2022-10-18T07:08:39.339Z,100.00
2022-10-18T07:11:15.349Z,100.00
2022-10-18T07:13:43.039Z,100.00
2022-10-18T07:16:17.301Z,100.00
2022-10-18T07:18:51.103Z,100.00
2022-10-18T07:21:22.254Z,100.00
2022-10-18T07:23:50.880Z,100.00
2022-10-18T07:26:21.392Z,99.81
2022-10-18T07:28:55.430Z,95.90
2022-10-18T07:31:23.997Z,93.92
2022-10-18T07:33:52.793Z,91.17
2022-10-18T07:36:22.218Z,89.83
2022-10-18T07:38:52.073Z,88.80
2022-10-18T07:41:20.313Z,86.58
2022-10-18T07:43:51.036Z,85.22
2022-10-18T07:46:20.680Z,82.39
2022-10-18T07:48:48.275Z,80.69
2022-10-18T07:51:16.652Z,81.27
2022-10-18T07:53:44.443Z,81.80
2022-10-18T07:56:16.647Z,82.83
2022-10-18T07:58:47.381Z,80.87
2022-10-18T08:01:15.996Z,79.71
2022-10-18T08:03:47.139Z,76.52
2022-10-18T08:06:18.483Z,76.71
2022-10-18T08:08:47.368Z,75.87
2022-10-18T08:11:17.744Z,75.57
2022-10-18T08:13:45.914Z,74.49
2022-10-18T08:16:16.717Z,74.74
2022-10-18T08:18:44.781Z,71.41
2022-10-18T08:21:17.784Z,69.52
2022-10-18T08:23:47.745Z,68.81
2022-10-18T08:26:20.357Z,65.85
2022-10-18T08:28:54.282Z,64.03
2022-10-18T08:31:31.782Z,62.27
2022-10-18T08:34:00.139Z,61.28
2022-10-18T08:36:28.625Z,60.95
2022-10-18T08:38:56.194Z,59.47
2022-10-18T08:41:54.954Z,59.57
2022-10-18T08:44:33.332Z,58.76
2022-10-18T08:47:05.853Z,57.92
2022-10-18T08:49:44.131Z,56.87
2022-10-18T08:52:27.864Z,56.41
2022-10-18T08:55:18.729Z,56.83
2022-10-18T08:57:47.700Z,56.25
2022-10-18T09:00:21.740Z,55.14
2022-10-18T09:03:12.469Z,54.96
2022-10-18T09:05:51.779Z,54.74
2022-10-18T09:08:51.495Z,55.12
2022-10-18T09:12:01.021Z,54.28
2022-10-18T09:14:35.928Z,55.74
2022-10-18T09:17:25.464Z,54.51
2022-10-18T09:20:11.106Z,54.76
2022-10-18T09:22:38.697Z,54.66
2022-10-18T09:25:23.441Z,54.95
2022-10-18T09:27:57.329Z,55.87
2022-10-18T09:30:39.875Z,54.91
2022-10-18T09:33:26.180Z,53.42
2022-10-18T09:35:59.215Z,54.09
2022-10-18T09:38:32.109Z,55.36
2022-10-18T09:41:10.234Z,54.43
2022-10-18T09:43:50.741Z,53.20
2022-10-18T09:46:20.618Z,53.77
2022-10-18T09:48:51.493Z,53.13
2022-10-18T09:51:27.275Z,53.78
2022-10-18T09:54:23.059Z,52.45
2022-10-18T09:57:17.295Z,52.25
2022-10-18T09:59:49.902Z,51.62
2022-10-18T10:02:23.181Z,50.68
2022-10-18T10:04:52.097Z,49.61
2022-10-18T10:07:32.580Z,48.86
2022-10-18T10:10:23.434Z,46.22
2022-10-18T10:13:19.021Z,45.55
2022-10-18T10:15:57.353Z,45.31
2022-10-18T10:18:31.248Z,45.07
2022-10-18T10:21:07.221Z,45.02
2022-10-18T10:23:51.120Z,45.30
2022-10-18T10:26:29.342Z,42.56
2022-10-18T10:28:58.391Z,41.12
2022-10-18T10:31:25.880Z,41.20
2022-10-18T10:34:20.549Z,41.54
2022-10-18T10:36:53.751Z,41.39
2022-10-18T10:39:24.674Z,40.93
2022-10-18T10:41:54.876Z,40.66
2022-10-18T10:44:25.891Z,41.05
2022-10-18T10:46:55.246Z,40.35
2022-10-18T10:49:44.153Z,39.55
2022-10-18T10:52:28.835Z,38.60
2022-10-18T10:55:16.983Z,38.72
2022-10-18T10:57:51.188Z,38.57
2022-10-18T11:00:36.977Z,38.01
2022-10-18T11:03:28.605Z,37.66
2022-10-18T11:06:02.035Z,38.30
2022-10-18T11:08:38.878Z,37.97
2022-10-18T11:11:22.880Z,38.32
2022-10-18T11:17:08.451Z,36.74
2022-10-18T11:19:50.273Z,37.67
2022-10-18T11:22:23.776Z,37.30
2022-10-18T11:24:51.776Z,38.14
2022-10-18T11:27:34.156Z,38.03
2022-10-18T11:30:35.083Z,38.50
2022-10-18T11:34:03.707Z,39.26
2022-10-18T11:36:40.326Z,38.91
2022-10-18T11:39:30.491Z,38.57
2022-10-18T11:42:25.410Z,39.49
2022-10-18T11:45:10.792Z,39.24
2022-10-18T11:47:43.920Z,40.21
2022-10-18T11:50:26.348Z,38.95
2022-10-18T11:53:02.550Z,39.67
2022-10-18T11:55:45.650Z,39.05
2022-10-18T11:58:44.281Z,39.86
2022-10-18T12:01:24.603Z,39.24
2022-10-18T12:04:20.611Z,38.90
2022-10-18T12:06:52.945Z,38.00
2022-10-18T12:09:41.951Z,37.32
2022-10-18T12:12:24.748Z,38.19
2022-10-18T12:14:59.533Z,38.04
2022-10-18T12:17:50.364Z,38.17
2022-10-18T12:20:30.515Z,37.52
2022-10-18T12:23:01.351Z,37.59
2022-10-18T12:25:32.573Z,38.01
2022-10-18T12:28:21.330Z,37.74
2022-10-18T12:31:06.916Z,36.41
2022-10-18T12:33:40.918Z,36.77
2022-10-18T12:36:11.455Z,36.36
2022-10-18T12:38:42.580Z,37.08
2022-10-18T12:41:22.018Z,37.17
2022-10-18T12:43:57.124Z,37.73
2022-10-18T12:46:25.155Z,37.24
2022-10-18T12:49:03.556Z,37.36
2022-10-18T12:51:31.609Z,37.86
2022-10-18T12:54:02.326Z,38.02
2022-10-18T12:56:34.490Z,39.04
2022-10-18T12:59:17.128Z,38.66
2022-10-18T13:01:51.248Z,38.45
2022-10-18T13:04:28.129Z,38.37
2022-10-18T13:07:04.977Z,38.22
2022-10-18T13:09:41.329Z,38.44
2022-10-18T13:12:13.042Z,38.82
2022-10-18T13:15:26.316Z,38.56
2022-10-18T13:18:26.625Z,39.51
2022-10-18T13:21:20.371Z,39.20
2022-10-18T13:24:04.882Z,41.61
2022-10-18T13:26:59.050Z,40.03
2022-10-18T13:29:44.749Z,39.63
2022-10-18T13:32:24.723Z,40.74
2022-10-18T13:34:54.514Z,40.14
2022-10-18T13:37:25.442Z,40.62
2022-10-18T13:40:22.547Z,41.15
2022-10-18T13:42:50.249Z,40.71
2022-10-18T13:45:33.328Z,41.98
2022-10-18T13:48:29.205Z,41.53
2022-10-18T13:51:34.971Z,42.00
2022-10-18T13:54:27.097Z,41.85
2022-10-18T13:57:16.496Z,41.81
2022-10-18T14:00:03.531Z,42.02
2022-10-18T14:03:01.512Z,43.61
2022-10-18T14:05:51.420Z,44.34
2022-10-18T14:11:28.490Z,44.48
2022-10-18T14:14:30.596Z,44.74
2022-10-18T14:17:14.193Z,44.17
2022-10-18T14:19:54.551Z,44.64
2022-10-18T14:22:24.876Z,44.50
2022-10-18T14:24:56.342Z,45.21
2022-10-18T14:27:25.019Z,46.38
2022-10-18T14:30:10.055Z,45.15
2022-10-18T14:32:45.515Z,46.37
2022-10-18T14:35:33.740Z,45.71
2022-10-18T14:38:02.710Z,46.13
2022-10-18T14:40:38.087Z,46.78
2022-10-18T14:43:09.123Z,46.55
2022-10-18T14:45:37.312Z,47.22
2022-10-18T14:48:07.772Z,46.92
2022-10-18T14:50:36.639Z,46.87
2022-10-18T14:53:07.053Z,47.54
2022-10-18T14:55:35.731Z,46.70
2022-10-18T14:58:03.465Z,47.29
2022-10-18T15:00:37.711Z,47.54
2022-10-18T15:03:11.170Z,47.70
2022-10-18T15:05:52.823Z,47.41
2022-10-18T15:08:21.465Z,47.71
2022-10-18T15:10:49.747Z,47.84
2022-10-18T15:13:19.615Z,47.98
2022-10-18T15:15:49.872Z,48.75
2022-10-18T15:18:25.311Z,48.65
2022-10-18T15:21:09.510Z,50.20
2022-10-18T15:23:37.225Z,49.98
2022-10-18T15:26:08.031Z,49.78
2022-10-18T15:28:52.771Z,50.07
2022-10-18T15:31:47.636Z,50.98
2022-10-18T15:34:20.916Z,50.26
2022-10-18T15:36:58.516Z,50.52
2022-10-18T15:39:30.708Z,50.87
2022-10-18T15:42:00.831Z,50.76
2022-10-18T15:44:57.516Z,51.03
2022-10-18T15:47:25.223Z,51.67
2022-10-18T15:49:58.371Z,51.09
2022-10-18T15:52:37.831Z,51.83
2022-10-18T15:55:31.458Z,51.47
2022-10-18T15:58:19.092Z,51.67
2022-10-18T16:00:47.939Z,52.36
2022-10-18T16:03:17.045Z,52.60
2022-10-18T16:05:45.145Z,52.29
2022-10-18T16:08:33.342Z,52.33
2022-10-18T16:11:03.455Z,52.20
2022-10-18T16:13:31.105Z,52.91
2022-10-18T16:16:00.221Z,53.11
2022-10-18T16:18:32.015Z,53.23
2022-10-18T16:21:01.982Z,52.75
2022-10-18T16:23:30.234Z,52.54
2022-10-18T16:25:57.880Z,52.02
2022-10-18T16:28:26.452Z,51.84
2022-10-18T16:31:00.513Z,51.97
2022-10-18T16:33:28.100Z,52.38
2022-10-18T16:35:56.237Z,52.75
2022-10-18T16:38:34.243Z,52.74
2022-10-18T16:41:07.088Z,52.75
2022-10-18T16:43:35.713Z,53.85
2022-10-18T16:46:04.654Z,53.03
2022-10-18T16:48:34.691Z,53.08
2022-10-18T16:51:02.470Z,53.31
2022-10-18T16:53:31.261Z,53.94
2022-10-18T16:56:03.264Z,54.00
2022-10-18T16:58:32.910Z,54.67
2022-10-18T17:01:01.978Z,54.88
2022-10-18T17:03:33.255Z,55.08
2022-10-18T17:06:01.016Z,55.19
2022-10-18T17:08:32.621Z,55.71
2022-10-18T17:11:01.780Z,56.16
2022-10-18T17:13:31.074Z,56.63
2022-10-18T17:16:00.106Z,57.29
2022-10-18T17:18:30.769Z,57.87
2022-10-18T17:21:01.826Z,58.26
2022-10-18T17:23:30.941Z,58.69
2022-10-18T17:26:06.847Z,59.42
2022-10-18T17:28:38.521Z,60.26
2022-10-18T17:31:07.319Z,60.35
2022-10-18T17:33:35.212Z,62.11
2022-10-18T17:36:03.083Z,62.27
2022-10-18T17:38:31.289Z,63.83
2022-10-18T17:40:58.866Z,65.59
2022-10-18T17:43:26.576Z,66.98
2022-10-18T17:45:56.320Z,68.41
2022-10-18T17:48:26.105Z,68.66
2022-10-18T17:50:53.684Z,69.30
2022-10-18T17:53:25.212Z,69.94
2022-10-18T17:56:02.363Z,71.02
2022-10-18T17:58:31.817Z,71.44
2022-10-18T18:01:13.864Z,71.73
2022-10-18T18:03:42.105Z,72.20
2022-10-18T18:06:17.061Z,72.67
2022-10-18T18:08:46.580Z,73.48
2022-10-18T18:11:15.416Z,73.68
2022-10-18T18:13:43.145Z,74.29
2022-10-18T18:16:16.137Z,75.21
2022-10-18T18:18:45.243Z,76.11
2022-10-18T18:21:16.575Z,75.91
2022-10-18T18:23:44.572Z,77.13
2022-10-18T18:26:17.012Z,78.00
2022-10-18T18:28:45.473Z,78.37
2022-10-18T18:31:19.245Z,78.13
2022-10-18T18:33:47.473Z,79.43
2022-10-18T18:36:15.240Z,78.89
2022-10-18T18:38:44.551Z,79.19
2022-10-18T18:41:18.464Z,81.15
2022-10-18T18:43:53.784Z,80.71
2022-10-18T18:46:23.261Z,80.78
2022-10-18T18:48:51.004Z,80.35
2022-10-18T18:51:20.761Z,80.81
2022-10-18T18:53:48.614Z,80.37
2022-10-18T18:56:22.363Z,81.39
2022-10-18T18:58:50.278Z,81.50
2022-10-18T19:01:23.804Z,81.41
2022-10-18T19:03:54.193Z,80.69
2022-10-18T19:06:27.857Z,80.69
2022-10-18T19:09:04.532Z,82.02
2022-10-18T19:11:38.841Z,81.76
2022-10-18T19:14:08.182Z,82.37
2022-10-18T19:17:01.273Z,84.34
2022-10-18T19:19:30.627Z,83.54
2022-10-18T19:22:05.038Z,83.27
2022-10-18T19:24:32.787Z,83.64
2022-10-18T19:27:08.738Z,83.66
2022-10-18T19:29:38.997Z,84.43
2022-10-18T19:32:12.155Z,85.02
2022-10-18T19:34:40.439Z,84.81
2022-10-18T19:37:10.316Z,85.16
2022-10-18T19:39:38.281Z,85.24
2022-10-18T19:42:09.104Z,84.95
2022-10-18T19:44:37.687Z,84.62
2022-10-18T19:47:06.995Z,85.03
2022-10-18T19:49:36.605Z,83.77
2022-10-18T19:52:04.905Z,83.41
2022-10-18T19:54:32.925Z,82.10
2022-10-18T19:57:00.887Z,81.10
2022-10-18T19:59:28.485Z,81.29
2022-10-18T20:01:56.081Z,82.71
2022-10-18T20:04:23.683Z,83.56
2022-10-18T20:06:51.216Z,82.90
2022-10-18T20:09:21.402Z,83.39
2022-10-18T20:11:48.938Z,83.98
2022-10-18T20:14:16.396Z,84.33
2022-10-18T20:16:47.067Z,85.62
2022-10-18T20:19:15.988Z,86.59
2022-10-18T20:21:44.404Z,86.14
2022-10-18T20:24:13.100Z,87.35
2022-10-18T20:26:41.346Z,88.92
2022-10-18T20:29:10.461Z,89.21
2022-10-18T20:31:39.428Z,88.29
2022-10-18T20:34:10.578Z,90.70
2022-10-18T20:36:40.194Z,90.88
2022-10-18T20:39:07.929Z,92.72
2022-10-18T20:41:38.652Z,92.99
2022-10-18T20:44:09.760Z,92.60
2022-10-18T20:46:38.857Z,93.49
2022-10-18T20:49:08.306Z,93.95
2022-10-18T20:51:36.238Z,94.05
2022-10-18T20:56:39.485Z,96.78
2022-10-18T20:59:09.910Z,96.64
2022-10-18T21:01:39.583Z,98.08
2022-10-18T21:04:09.424Z,97.55
2022-10-18T21:06:40.255Z,96.76
2022-10-18T21:09:13.709Z,98.77
2022-10-18T21:11:45.075Z,100.00
2022-10-18T21:14:16.966Z,100.00
2022-10-18T21:16:45.413Z,100.00
2022-10-18T21:19:16.408Z,100.00
2022-10-18T21:21:47.145Z,99.88
2022-10-18T21:24:15.122Z,100.00
2022-10-18T21:26:42.683Z,99.73
2022-10-18T21:29:11.519Z,99.40
2022-10-18T21:31:42.180Z,98.58
2022-10-18T21:34:14.064Z,98.62
2022-10-18T21:36:44.150Z,98.04
2022-10-18T21:39:17.848Z,97.14
2022-10-18T21:41:46.888Z,96.28
2022-10-18T21:44:15.607Z,96.71
2022-10-18T21:46:43.792Z,96.67
2022-10-18T21:49:11.844Z,97.25
2022-10-18T21:51:40.418Z,97.54
2022-10-18T21:54:12.477Z,97.61
2022-10-18T21:56:40.361Z,96.80
2022-10-18T21:59:12.505Z,96.16
2022-10-18T22:01:41.560Z,95.05
2022-10-18T22:04:20.059Z,97.20
2022-10-18T22:06:50.501Z,97.52
2022-10-18T22:09:21.280Z,100.00
2022-10-18T22:11:51.569Z,100.00
2022-10-18T22:14:19.840Z,98.92
2022-10-18T22:16:47.440Z,98.78
2022-10-18T22:19:16.921Z,99.85
2022-10-18T22:21:45.026Z,99.94
2022-10-18T22:24:12.935Z,100.00
2022-10-18T22:26:43.300Z,100.00
2022-10-18T22:29:16.484Z,100.00
2022-10-18T22:31:47.443Z,100.00
2022-10-18T22:34:18.587Z,100.00
2022-10-18T22:36:46.627Z,100.00
2022-10-18T22:39:15.370Z,100.00
2022-10-18T22:41:44.275Z,100.00
2022-10-18T22:44:13.428Z,100.00
2022-10-18T22:46:42.309Z,100.00
2022-10-18T22:49:11.568Z,100.00
2022-10-18T22:51:39.328Z,100.00
2022-10-18T22:54:07.388Z,100.00
2022-10-18T22:56:35.380Z,100.00
2022-10-18T22:59:03.353Z,100.00
2022-10-18T23:01:30.925Z,100.00
2022-10-18T23:04:00.044Z,100.00
2022-10-18T23:06:33.587Z,100.00
2022-10-18T23:09:05.089Z,100.00
2022-10-18T23:11:34.399Z,100.00
2022-10-18T23:14:03.838Z,100.00
2022-10-18T23:16:32.480Z,100.00
2022-10-18T23:19:00.120Z,100.00
2022-10-18T23:21:29.137Z,100.00
2022-10-18T23:23:57.565Z,100.00
2022-10-18T23:26:27.094Z,100.00
2022-10-18T23:28:55.299Z,100.00
2022-10-18T23:31:31.949Z,100.00
2022-10-18T23:34:02.027Z,100.00
2022-10-18T23:36:31.265Z,100.00
2022-10-18T23:38:59.379Z,100.00
2022-10-18T23:41:26.886Z,100.00
2022-10-18T23:43:55.121Z,100.00
2022-10-18T23:46:22.675Z,100.00
2022-10-18T23:48:50.453Z,100.00
2022-10-18T23:51:18.349Z,100.00
2022-10-18T23:53:47.278Z,100.00
2022-10-18T23:56:16.369Z,100.00
2022-10-18T23:58:45.743Z,100.00
